Time;durP1;ratioP1;P1;durP2;ratioP2;P2;SDS_P1;SDS_P2;PMS_P1;PMS_P2;Temp;Humidity;BMP_temperature;BMP_pressure;BME280_temperature;BME280_humidity;BME280_pressure;Samples;Min_cycle;Max_cycle;Signal;HPM_P1;HPM_P2
2021/04/23 00:00:32;;;;;;;10.27;3.83;;;3.70;90.10;;;;;;5063159;28;20037;-81
2021/04/23 00:03:01;;;;;;;10.88;3.38;;;3.70;90.10;;;;;;5067265;28;20044;-81
2021/04/23 00:05:27;;;;;;;12.65;4.22;;;3.80;90.00;;;;;;5055202;28;20037;-81
2021/04/23 00:07:54;;;;;;;10.18;3.55;;;3.90;88.90;;;;;;5054849;28;20025;-81
2021/04/23 00:10:21;;;;;;;9.90;4.10;;;4.10;87.60;;;;;;5055575;28;20385;-81
2021/04/23 00:12:48;;;;;;;31.10;6.68;;;4.20;86.60;;;;;;5055309;28;20489;-81
2021/04/23 00:15:18;;;;;;;7.93;3.50;;;4.20;86.00;;;;;;5043948;28;20331;-81
2021/04/23 00:17:44;;;;;;;9.02;4.00;;;4.30;86.40;;;;;;5055346;28;20040;-81
2021/04/23 00:20:20;;;;;;;11.88;3.33;;;4.20;86.80;;;;;;5054646;28;20033;-82
2021/04/23 00:22:47;;;;;;;11.27;3.92;;;4.10;86.90;;;;;;5071566;28;20024;-81
2021/04/23 00:25:14;;;;;;;10.88;3.63;;;4.10;87.70;;;;;;5060234;28;20058;-80
2021/04/23 00:27:41;;;;;;;8.77;3.83;;;3.90;88.90;;;;;;5068171;28;20033;-80
2021/04/23 00:30:08;;;;;;;10.90;4.40;;;3.80;89.90;;;;;;5074054;28;20035;-81
2021/04/23 00:32:54;;;;;;;9.40;3.97;;;3.80;90.40;;;;;;5057892;28;20048;-80
2021/04/23 00:35:26;;;;;;;19.05;5.80;;;3.50;90.70;;;;;;5074570;28;20036;-80
2021/04/23 00:37:54;;;;;;;9.43;4.20;;;3.40;91.50;;;;;;5074158;28;20477;-80
2021/04/23 00:40:24;;;;;;;13.82;4.15;;;3.30;92.10;;;;;;5055269;28;20036;-80
2021/04/23 00:42:51;;;;;;;7.00;3.88;;;3.50;92.90;;;;;;5054879;28;20025;-80
2021/04/23 00:45:21;;;;;;;8.50;3.88;;;3.50;92.80;;;;;;5068983;28;20037;-81
2021/04/23 00:47:49;;;;;;;12.23;3.97;;;3.50;92.70;;;;;;5063648;28;20033;-81
2021/04/23 00:50:27;;;;;;;10.00;5.25;;;3.50;93.00;;;;;;5054648;28;20218;-81
2021/04/23 00:52:54;;;;;;;9.00;3.63;;;3.50;93.50;;;;;;5054702;28;20036;-81
2021/04/23 00:55:20;;;;;;;9.90;3.83;;;3.40;93.60;;;;;;5052679;28;20041;-80
2021/04/23 00:57:46;;;;;;;11.40;4.07;;;3.40;93.80;;;;;;5068074;28;20029;-80
2021/04/23 01:00:13;;;;;;;8.18;3.83;;;3.30;94.10;;;;;;5053665;28;20029;-81
2021/04/23 01:02:39;;;;;;;12.13;3.65;;;3.20;94.70;;;;;;5054599;28;20029;-80
2021/04/23 01:05:06;;;;;;;9.68;4.60;;;3.20;95.10;;;;;;5053995;28;20040;-80
2021/04/23 01:07:33;;;;;;;12.40;3.45;;;3.10;95.60;;;;;;5059929;28;20489;-80
2021/04/23 01:10:00;;;;;;;7.45;3.50;;;3.00;96.00;;;;;;5060652;28;20021;-80
2021/04/23 01:12:26;;;;;;;11.75;5.00;;;2.90;96.90;;;;;;5053053;28;20140;-81
2021/04/23 01:14:52;;;;;;;9.20;3.92;;;2.80;97.70;;;;;;5053862;28;20359;-81
2021/04/23 01:17:19;;;;;;;14.18;4.95;;;2.70;98.60;;;;;;5052106;28;20049;-81
2021/04/23 01:19:45;;;;;;;11.77;4.53;;;2.70;99.30;;;;;;5067582;28;20500;-81
2021/04/23 01:22:11;;;;;;;8.50;4.60;;;2.60;99.80;;;;;;5052103;28;20462;-82
2021/04/23 01:24:37;;;;;;;15.13;5.35;;;2.50;99.90;;;;;;5053955;28;20033;-80
2021/04/23 01:27:04;;;;;;;10.43;3.88;;;2.40;99.90;;;;;;5053728;28;20041;-80
2021/04/23 01:29:30;;;;;;;12.10;4.65;;;2.30;99.90;;;;;;5064329;28;20052;-80
2021/04/23 01:31:57;;;;;;;10.70;4.47;;;2.10;99.90;;;;;;5057511;28;20048;-79
2021/04/23 01:34:31;;;;;;;21.27;5.30;;;2.10;99.90;;;;;;5068109;28;20045;-80
2021/04/23 01:36:58;;;;;;;14.57;5.20;;;2.00;99.90;;;;;;5053527;28;20066;-80
2021/04/23 01:39:26;;;;;;;10.55;5.32;;;2.20;99.90;;;;;;5035546;28;20041;-80
2021/04/23 01:41:54;;;;;;;11.60;4.78;;;2.30;99.90;;;;;;5069124;28;20059;-81
2021/04/23 01:44:22;;;;;;;11.40;4.85;;;2.40;99.90;;;;;;5065837;28;20033;-81
2021/04/23 01:46:49;;;;;;;9.75;4.30;;;2.50;99.90;;;;;;5054290;28;20044;-81
2021/04/23 01:49:18;;;;;;;13.32;4.72;;;2.50;99.90;;;;;;5053428;28;20371;-82
2021/04/23 01:51:48;;;;;;;10.48;4.28;;;2.40;99.90;;;;;;5053715;28;20032;-81
2021/04/23 01:54:16;;;;;;;10.67;4.10;;;2.30;99.90;;;;;;5056466;28;20394;-80
2021/04/23 01:56:44;;;;;;;13.55;5.45;;;2.30;99.90;;;;;;5064662;28;20070;-79
2021/04/23 01:59:11;;;;;;;13.77;4.50;;;2.20;99.90;;;;;;5051834;28;20036;-80
2021/04/23 02:01:38;;;;;;;13.18;4.22;;;2.20;99.90;;;;;;5066678;28;20048;-80
2021/04/23 02:04:06;;;;;;;11.95;4.68;;;2.10;99.90;;;;;;5053086;28;20036;-80
2021/04/23 02:06:33;;;;;;;9.02;4.63;;;2.00;99.90;;;;;;5052361;28;20037;-80
2021/04/23 02:08:59;;;;;;;8.82;4.88;;;2.00;99.90;;;;;;5053204;28;20049;-80
2021/04/23 02:11:26;;;;;;;10.48;5.40;;;2.00;99.90;;;;;;5062633;28;20044;-80
2021/04/23 02:13:55;;;;;;;13.35;5.07;;;1.80;99.90;;;;;;5063810;28;20056;-81
2021/04/23 02:16:24;;;;;;;10.80;4.28;;;1.70;99.90;;;;;;5065013;28;20025;-80
2021/04/23 02:18:53;;;;;;;10.90;4.78;;;1.60;99.90;;;;;;5053241;28;20051;-80
2021/04/23 02:21:20;;;;;;;8.80;4.57;;;1.50;99.90;;;;;;5052655;28;20032;-80
2021/04/23 02:23:48;;;;;;;17.88;5.40;;;1.70;99.90;;;;;;5064833;28;20036;-82
2021/04/23 02:26:15;;;;;;;13.77;6.10;;;1.70;99.90;;;;;;5068108;28;20036;-81
2021/04/23 02:28:43;;;;;;;15.73;4.28;;;1.80;99.90;;;;;;5053063;28;20031;-80
2021/04/23 02:31:12;;;;;;;16.15;6.03;;;1.90;99.90;;;;;;5067853;28;20393;-81
2021/04/23 02:33:40;;;;;;;8.57;4.57;;;1.80;99.90;;;;;;5068212;28;20044;-81
2021/04/23 02:36:07;;;;;;;13.70;4.50;;;1.80;99.90;;;;;;5052996;28;20506;-80
2021/04/23 02:38:34;;;;;;;11.50;4.53;;;1.80;99.90;;;;;;5054990;28;20056;-80
2021/04/23 02:41:02;;;;;;;10.43;5.05;;;1.70;99.90;;;;;;5051595;28;20048;-81
2021/04/23 02:43:32;;;;;;;12.60;4.80;;;1.70;99.90;;;;;;5051501;28;20038;-81
2021/04/23 02:45:59;;;;;;;14.85;4.63;;;1.60;99.90;;;;;;5052707;28;20045;-81
2021/04/23 02:48:28;;;;;;;12.10;5.10;;;1.50;99.90;;;;;;5060661;28;20025;-81
2021/04/23 02:51:08;;;;;;;13.30;5.90;;;1.50;99.90;;;;;;5052522;28;20029;-81
2021/04/23 02:53:34;;;;;;;12.27;4.40;;;1.40;99.90;;;;;;5051703;28;20052;-82
2021/04/23 02:56:01;;;;;;;14.88;5.95;;;1.30;99.90;;;;;;5066166;28;20052;-81
2021/04/23 02:58:28;;;;;;;13.75;5.82;;;1.20;99.90;;;;;;5066234;28;20037;-82
2021/04/23 03:01:00;;;;;;;12.85;5.55;;;1.20;99.90;;;;;;5052536;28;20111;-81
2021/04/23 03:03:28;;;;;;;13.13;5.68;;;1.10;99.90;;;;;;5051954;28;20406;-81
2021/04/23 03:05:55;;;;;;;13.23;6.00;;;0.90;99.90;;;;;;5037027;28;20044;-83
2021/04/23 03:08:22;;;;;;;15.30;5.55;;;0.80;99.90;;;;;;5052513;28;20025;-81
2021/04/23 03:11:06;;;;;;;15.32;6.30;;;0.70;99.90;;;;;;5052217;28;20426;-81
2021/04/23 03:13:33;;;;;;;16.85;6.63;;;0.70;99.90;;;;;;5051868;28;20029;-82
2021/04/23 03:15:59;;;;;;;17.52;7.70;;;0.70;99.90;;;;;;5052062;28;20033;-81
2021/04/23 03:18:27;;;;;;;20.70;7.25;;;0.70;99.90;;;;;;5053598;28;20029;-81
2021/04/23 03:20:56;;;;;;;17.73;8.98;;;0.60;99.90;;;;;;5059601;28;20474;-81
2021/04/23 03:23:23;;;;;;;20.27;9.30;;;0.60;99.90;;;;;;5055667;28;20466;-81
2021/04/23 03:25:50;;;;;;;16.33;9.70;;;0.60;99.90;;;;;;5067796;28;20033;-82
2021/04/23 03:28:16;;;;;;;20.33;9.23;;;0.60;99.90;;;;;;5054503;28;20041;-81
2021/04/23 03:30:43;;;;;;;13.80;7.43;;;0.60;99.90;;;;;;5056106;28;20390;-83
2021/04/23 03:33:11;;;;;;;17.75;8.68;;;0.70;99.90;;;;;;5055681;28;20049;-82
2021/04/23 03:35:39;;;;;;;15.57;7.00;;;0.70;99.90;;;;;;5054620;28;20477;-81
2021/04/23 03:38:08;;;;;;;19.42;6.50;;;0.60;99.90;;;;;;5055200;28;20389;-81
2021/04/23 03:40:36;;;;;;;15.63;6.32;;;0.50;99.90;;;;;;5055861;28;20036;-81
2021/04/23 03:43:03;;;;;;;18.98;6.40;;;0.30;99.90;;;;;;5056137;28;20032;-81
2021/04/23 03:45:30;;;;;;;18.60;6.90;;;0.30;99.90;;;;;;5055478;28;20040;-83
2021/04/23 03:47:56;;;;;;;14.20;6.30;;;0.20;99.90;;;;;;5055384;28;20036;-81
2021/04/23 03:50:28;;;;;;;11.30;6.35;;;0.20;99.90;;;;;;5068880;28;20045;-84
2021/04/23 03:52:56;;;;;;;17.60;7.40;;;0.20;99.90;;;;;;5055484;28;20036;-82
2021/04/23 03:55:30;;;;;;;16.63;7.15;;;0.40;99.90;;;;;;5054881;28;20037;-82
2021/04/23 03:57:58;;;;;;;19.17;6.47;;;0.40;99.90;;;;;;5062481;28;20048;-82
2021/04/23 04:00:31;;;;;;;12.43;6.55;;;0.40;99.90;;;;;;5075365;28;20040;-82
2021/04/23 04:02:57;;;;;;;17.45;7.20;;;0.20;99.90;;;;;;5057112;28;20045;-82
2021/04/23 04:05:23;;;;;;;18.45;7.05;;;0.10;99.90;;;;;;5054709;28;20486;-82
2021/04/23 04:07:50;;;;;;;16.77;6.55;;;0.10;99.90;;;;;;5055087;28;20462;-82
2021/04/23 04:10:17;;;;;;;15.90;7.10;;;0.10;99.90;;;;;;5070847;28;20048;-82
2021/04/23 04:12:44;;;;;;;15.57;6.55;;;0.30;99.90;;;;;;5069593;28;20029;-82
2021/04/23 04:15:10;;;;;;;19.08;6.72;;;0.20;99.90;;;;;;5055392;28;20033;-82
2021/04/23 04:17:37;;;;;;;16.95;6.03;;;0.30;99.90;;;;;;5060045;28;20037;-85
2021/04/23 04:20:07;;;;;;;17.05;6.45;;;0.30;99.90;;;;;;5068474;28;20040;-85
2021/04/23 04:22:33;;;;;;;12.60;6.43;;;0.30;99.90;;;;;;5058932;28;20299;-86
2021/04/23 04:24:59;;;;;;;15.50;6.20;;;0.30;99.90;;;;;;5071960;28;20031;-85
2021/04/23 04:27:26;;;;;;;14.57;6.43;;;0.30;99.90;;;;;;5057757;28;20288;-84
2021/04/23 04:29:52;;;;;;;13.05;6.40;;;0.30;99.90;;;;;;5064638;28;20354;-85
2021/04/23 04:32:19;;;;;;;17.08;7.15;;;0.40;99.90;;;;;;5050712;28;20701;-85
2021/04/23 04:34:46;;;;;;;14.65;6.57;;;0.50;99.90;;;;;;5073344;28;20040;-84
2021/04/23 04:37:12;;;;;;;14.32;7.32;;;0.70;99.90;;;;;;5054937;28;20470;-85
2021/04/23 04:39:39;;;;;;;16.33;7.13;;;0.70;99.90;;;;;;5055376;28;20045;-86
2021/04/23 04:42:06;;;;;;;23.65;8.13;;;0.80;99.90;;;;;;5069494;28;20028;-85
2021/04/23 04:44:33;;;;;;;15.82;7.75;;;1.00;99.90;;;;;;5054618;28;20032;-85
2021/04/23 04:47:01;;;;;;;15.93;7.68;;;1.30;99.90;;;;;;5056255;28;20048;-85
2021/04/23 04:49:27;;;;;;;15.25;7.53;;;1.40;99.90;;;;;;5056077;28;20143;-86
2021/04/23 04:51:53;;;;;;;14.02;6.75;;;1.50;99.90;;;;;;5072635;28;20032;-85
2021/04/23 04:54:20;;;;;;;19.42;7.68;;;1.60;99.90;;;;;;5069583;28;20040;-85
2021/04/23 04:56:46;;;;;;;16.38;7.72;;;1.70;99.90;;;;;;5056650;28;20037;-85
2021/04/23 04:59:13;;;;;;;20.48;8.48;;;2.00;99.90;;;;;;5057887;28;20040;-81
2021/04/23 05:01:39;;;;;;;13.15;6.38;;;2.70;99.90;;;;;;5063284;28;20033;-82
2021/04/23 05:04:05;;;;;;;11.27;6.93;;;3.50;99.90;;;;;;5060322;28;20035;-85
2021/04/23 05:06:31;;;;;;;11.85;6.00;;;4.30;99.90;;;;;;5071090;28;20041;-86
2021/04/23 05:08:58;;;;;;;12.45;6.40;;;5.00;96.90;;;;;;5053782;28;20397;-87
2021/04/23 05:11:24;;;;;;;10.35;5.32;;;5.70;92.50;;;;;;5052787;28;20025;-85
2021/04/23 05:13:50;;;;;;;9.40;4.72;;;6.10;86.40;;;;;;5068478;28;20052;-85
2021/04/23 05:16:17;;;;;;;13.90;5.30;;;6.60;82.10;;;;;;5054397;28;20033;-85
2021/04/23 05:18:43;;;;;;;14.73;7.15;;;6.80;79.60;;;;;;5054089;28;20047;-83
2021/04/23 05:21:10;;;;;;;12.13;5.38;;;6.80;80.00;;;;;;5052871;28;20033;-84
2021/04/23 05:23:36;;;;;;;9.45;5.15;;;6.90;79.00;;;;;;5053544;28;20497;-85
2021/04/23 05:26:02;;;;;;;11.82;5.22;;;7.30;77.20;;;;;;5072080;28;20032;-84
2021/04/23 05:28:28;;;;;;;9.57;5.13;;;7.50;76.40;;;;;;5059555;28;20037;-84
2021/04/23 05:30:55;;;;;;;12.75;5.57;;;7.50;75.60;;;;;;5066478;28;20363;-84
2021/04/23 05:33:21;;;;;;;13.23;5.68;;;7.50;75.10;;;;;;5051479;28;20049;-84
2021/04/23 05:35:47;;;;;;;12.70;5.47;;;7.40;75.10;;;;;;5069010;28;20041;-84
2021/04/23 05:38:14;;;;;;;9.23;5.22;;;7.70;74.10;;;;;;5072043;28;20032;-88
2021/04/23 05:40:45;;;;;;;11.73;5.38;;;8.20;72.70;;;;;;5053408;28;20454;-85
2021/04/23 05:43:13;;;;;;;14.95;6.15;;;8.30;70.40;;;;;;5053580;28;20036;-86
2021/04/23 05:45:40;;;;;;;13.18;5.22;;;8.60;69.40;;;;;;5054362;28;20036;-83
2021/04/23 05:48:08;;;;;;;10.93;5.13;;;8.60;68.80;;;;;;5071197;28;20036;-84
2021/04/23 05:50:36;;;;;;;13.20;5.10;;;8.90;67.80;;;;;;5053441;28;20048;-83
2021/04/23 05:53:03;;;;;;;12.52;6.35;;;8.50;68.50;;;;;;5052376;28;20037;-84
2021/04/23 05:55:30;;;;;;;12.25;5.15;;;8.30;69.20;;;;;;5052120;28;20033;-83
2021/04/23 05:57:59;;;;;;;13.57;5.38;;;8.50;68.60;;;;;;5053494;28;20033;-83
2021/04/23 06:00:30;;;;;;;9.35;5.68;;;8.50;68.10;;;;;;5063323;28;20032;-84
2021/04/23 06:02:57;;;;;;;11.45;5.38;;;8.50;67.80;;;;;;5064612;28;20056;-84
2021/04/23 06:05:28;;;;;;;9.38;5.03;;;8.50;67.20;;;;;;5063466;28;20454;-83
2021/04/23 06:08:00;;;;;;;8.23;5.15;;;8.70;66.90;;;;;;5063862;28;20037;-82
2021/04/23 06:10:27;;;;;;;13.88;5.38;;;8.70;67.20;;;;;;5061249;28;20100;-82
2021/04/23 06:12:54;;;;;;;10.82;5.53;;;9.30;65.50;;;;;;5051804;28;20029;-83
2021/04/23 06:15:21;;;;;;;11.25;5.53;;;9.90;63.80;;;;;;5051886;28;20375;-84
2021/04/23 06:17:48;;;;;;;11.77;5.78;;;9.90;61.50;;;;;;5052785;28;20024;-82
2021/04/23 06:20:19;;;;;;;12.07;4.93;;;10.40;60.90;;;;;;5043123;28;20059;-82
2021/04/23 06:22:45;;;;;;;13.55;5.30;;;9.90;60.80;;;;;;5052529;28;20029;-81
2021/04/23 06:25:14;;;;;;;17.67;5.20;;;10.30;59.60;;;;;;5052394;28;20036;-81
2021/04/23 06:27:42;;;;;;;10.35;4.70;;;10.30;60.50;;;;;;5052518;28;20033;-83
2021/04/23 06:30:11;;;;;;;8.52;5.03;;;10.40;60.00;;;;;;5052455;28;20056;-83
2021/04/23 06:32:40;;;;;;;11.98;5.20;;;10.30;59.80;;;;;;5059210;28;20040;-86
2021/04/23 06:35:07;;;;;;;8.05;4.85;;;10.20;59.70;;;;;;5066420;28;20053;-86
2021/04/23 06:37:33;;;;;;;12.45;4.72;;;10.20;60.00;;;;;;5052487;28;20386;-85
2021/04/23 06:40:00;;;;;;;12.93;5.38;;;10.70;59.50;;;;;;5068163;28;20474;-83
2021/04/23 06:42:26;;;;;;;11.45;4.85;;;11.10;58.30;;;;;;5052921;28;20043;-85
2021/04/23 06:44:52;;;;;;;9.85;5.20;;;11.30;57.20;;;;;;5066992;28;20033;-83
2021/04/23 06:47:19;;;;;;;12.70;4.97;;;11.70;55.50;;;;;;5064888;28;20367;-83
2021/04/23 06:49:45;;;;;;;9.80;4.90;;;12.00;55.10;;;;;;5075727;28;20036;-83
2021/04/23 06:52:11;;;;;;;12.40;5.07;;;13.20;53.90;;;;;;5075368;28;20031;-84
2021/04/23 06:54:38;;;;;;;10.05;5.05;;;14.00;52.30;;;;;;5060350;28;20029;-84
2021/04/23 06:57:04;;;;;;;11.32;5.15;;;13.60;52.60;;;;;;5055363;28;20149;-84
2021/04/23 06:59:31;;;;;;;9.32;5.18;;;12.60;53.30;;;;;;5065543;28;20021;-84
2021/04/23 07:01:57;;;;;;;9.20;4.40;;;13.20;52.90;;;;;;5052304;28;20037;-84
2021/04/23 07:04:23;;;;;;;9.60;4.95;;;13.00;53.40;;;;;;5051964;28;20029;-84
2021/04/23 07:06:49;;;;;;;7.05;4.47;;;12.90;53.40;;;;;;5052589;28;20386;-86
2021/04/23 07:09:17;;;;;;;8.23;4.38;;;12.60;53.60;;;;;;5054864;28;20476;-80
2021/04/23 07:11:47;;;;;;;12.90;5.78;;;13.30;52.90;;;;;;5061210;28;20037;-85
2021/04/23 07:14:13;;;;;;;12.18;4.88;;;12.60;54.00;;;;;;5052281;28;20374;-85
2021/04/23 07:16:39;;;;;;;9.30;4.55;;;12.80;54.00;;;;;;5049887;28;20037;-85
2021/04/23 07:19:06;;;;;;;7.95;4.90;;;12.80;53.70;;;;;;5052074;28;20490;-86
2021/04/23 07:21:32;;;;;;;9.80;4.25;;;12.20;54.00;;;;;;5051673;28;20029;-84
2021/04/23 07:23:58;;;;;;;7.20;4.28;;;12.70;53.60;;;;;;5051102;28;20026;-87
2021/04/23 07:26:25;;;;;;;9.48;5.18;;;12.30;53.50;;;;;;5065442;28;20490;-84
2021/04/23 07:28:52;;;;;;;9.98;4.72;;;12.20;54.60;;;;;;5052344;28;20040;-84
2021/04/23 07:31:18;;;;;;;10.38;4.20;;;13.70;50.90;;;;;;5055446;28;20484;-84
2021/04/23 07:33:44;;;;;;;8.95;4.47;;;13.80;50.70;;;;;;5065826;28;20052;-85
2021/04/23 07:36:10;;;;;;;10.68;4.25;;;13.10;51.70;;;;;;5051522;28;20044;-82
2021/04/23 07:38:37;;;;;;;8.90;4.45;;;13.70;51.30;;;;;;5051566;28;20045;-86
2021/04/23 07:41:03;;;;;;;14.18;4.88;;;14.40;50.00;;;;;;5051888;28;20029;-83
2021/04/23 07:43:29;;;;;;;10.27;4.80;;;14.40;49.10;;;;;;5050935;28;20044;-84
2021/04/23 07:45:57;;;;;;;10.20;4.45;;;13.60;50.40;;;;;;5052002;28;20028;-86
2021/04/23 07:48:24;;;;;;;9.82;4.70;;;14.60;48.80;;;;;;5051319;28;20390;-85
2021/04/23 07:50:50;;;;;;;12.77;4.95;;;15.20;48.60;;;;;;5052664;28;20037;-86
2021/04/23 07:53:17;;;;;;;10.95;5.32;;;14.80;47.90;;;;;;5051140;28;20068;-84
2021/04/23 07:55:43;;;;;;;8.77;4.72;;;15.30;47.30;;;;;;5052105;28;20044;-85
2021/04/23 07:58:10;;;;;;;13.15;4.65;;;16.00;47.20;;;;;;5052484;28;20458;-79
2021/04/23 08:00:36;;;;;;;9.73;5.05;;;14.50;48.70;;;;;;5057379;28;20028;-84
2021/04/23 08:03:03;;;;;;;9.68;5.00;;;14.40;49.20;;;;;;5054740;28;20036;-85
2021/04/23 08:05:29;;;;;;;8.85;4.82;;;14.40;49.50;;;;;;5054760;28;20029;-79
2021/04/23 08:07:56;;;;;;;9.98;5.38;;;15.90;45.50;;;;;;5055186;28;20040;-76
2021/04/23 08:10:23;;;;;;;9.98;5.30;;;15.20;45.90;;;;;;5054633;28;20103;-76
2021/04/23 08:12:51;;;;;;;10.68;5.80;;;14.80;47.50;;;;;;5068362;28;20037;-77
2021/04/23 08:15:19;;;;;;;12.55;5.68;;;14.60;47.80;;;;;;5056566;28;20040;-77
2021/04/23 08:17:46;;;;;;;9.57;5.13;;;14.90;47.20;;;;;;5063689;28;20040;-75
2021/04/23 08:20:13;;;;;;;9.50;5.50;;;15.30;46.60;;;;;;5067725;28;20041;-75
2021/04/23 08:22:40;;;;;;;12.40;5.68;;;16.00;45.00;;;;;;5059021;28;20025;-77
2021/04/23 08:25:08;;;;;;;11.88;6.22;;;14.80;46.10;;;;;;5070065;28;20036;-77
2021/04/23 08:27:34;;;;;;;13.57;6.88;;;13.60;47.80;;;;;;5062956;28;20497;-77
2021/04/23 08:30:01;;;;;;;10.40;5.75;;;13.50;48.60;;;;;;5062686;28;20049;-78
2021/04/23 08:32:27;;;;;;;11.48;6.28;;;13.50;48.60;;;;;;5064600;28;20052;-77
2021/04/23 08:34:54;;;;;;;10.15;6.00;;;14.70;47.00;;;;;;5071813;28;20040;-79
2021/04/23 08:37:23;;;;;;;10.45;6.32;;;14.00;47.20;;;;;;5073134;28;20029;-78
2021/04/23 08:39:49;;;;;;;10.70;6.28;;;13.60;48.20;;;;;;5071189;28;20028;-78
2021/04/23 08:42:16;;;;;;;10.95;5.35;;;13.70;48.30;;;;;;5073359;28;20043;-78
2021/04/23 08:44:43;;;;;;;10.02;5.13;;;13.50;48.50;;;;;;5060719;28;20037;-79
2021/04/23 08:47:09;;;;;;;10.85;5.82;;;13.50;49.00;;;;;;5053983;28;20051;-78
2021/04/23 08:49:36;;;;;;;11.32;5.60;;;13.90;48.00;;;;;;5067000;28;20154;-77
2021/04/23 08:52:03;;;;;;;10.32;5.93;;;14.90;48.20;;;;;;5070557;28;20040;-77
2021/04/23 08:54:30;;;;;;;9.05;5.85;;;15.50;44.40;;;;;;5064316;28;20040;-77
2021/04/23 08:57:04;;;;;;;9.60;5.30;;;15.50;45.70;;;;;;5070314;28;20043;-77
2021/04/23 08:59:34;;;;;;;13.90;6.18;;;15.10;45.70;;;;;;5071606;28;20055;-78
2021/04/23 09:02:01;;;;;;;8.75;5.63;;;14.30;46.60;;;;;;5068460;28;20044;-79
2021/04/23 09:04:27;;;;;;;12.90;6.18;;;15.20;45.40;;;;;;5053995;28;20382;-78
2021/04/23 09:07:06;;;;;;;9.75;5.75;;;16.00;44.50;;;;;;5070681;28;20040;-78
2021/04/23 09:09:42;;;;;;;11.57;5.55;;;15.20;44.70;;;;;;5055122;28;20485;-78
2021/04/23 09:12:19;;;;;;;14.65;5.65;;;15.70;44.40;;;;;;5060324;28;20029;-78
2021/04/23 09:14:46;;;;;;;10.98;5.35;;;16.80;43.20;;;;;;5054040;28;20670;-78
2021/04/23 09:17:20;;;;;;;10.85;6.35;;;16.30;43.60;;;;;;5060283;28;20028;-79
2021/04/23 09:19:47;;;;;;;12.82;6.07;;;14.50;46.40;;;;;;5067909;28;20040;-79
2021/04/23 09:22:17;;;;;;;9.52;5.78;;;15.00;46.20;;;;;;5055937;28;20047;-78
2021/04/23 09:25:03;;;;;;;10.52;5.82;;;16.20;44.70;;;;;;5071780;28;20044;-79
2021/04/23 09:27:34;;;;;;;11.52;6.05;;;14.60;46.50;;;;;;5066768;28;20041;-78
2021/04/23 09:30:06;;;;;;;11.02;6.05;;;14.20;47.00;;;;;;5061038;28;20381;-79
2021/04/23 09:32:42;;;;;;;13.55;5.90;;;15.70;45.10;;;;;;5052972;28;20358;-78
2021/04/23 09:35:11;;;;;;;9.98;5.65;;;15.20;45.60;;;;;;5064607;28;20039;-79
2021/04/23 09:37:45;;;;;;;12.18;6.05;;;15.10;46.50;;;;;;5060143;28;20040;-78
2021/04/23 09:40:29;;;;;;;11.40;6.25;;;15.20;45.90;;;;;;5053566;28;20041;-79
2021/04/23 09:43:06;;;;;;;9.85;5.45;;;14.40;46.30;;;;;;5053458;28;20095;-79
2021/04/23 09:45:35;;;;;;;12.15;6.07;;;15.00;45.00;;;;;;5053143;28;20052;-78
2021/04/23 09:48:02;;;;;;;16.05;6.15;;;14.90;45.90;;;;;;5064580;28;20049;-78
2021/04/23 09:50:34;;;;;;;11.23;6.28;;;14.90;47.10;;;;;;5051402;28;20052;-79
2021/04/23 09:53:00;;;;;;;9.82;5.82;;;14.20;47.40;;;;;;5052728;28;20382;-78
2021/04/23 09:55:30;;;;;;;9.30;5.53;;;16.60;44.70;;;;;;5061229;28;20370;-78
2021/04/23 09:58:00;;;;;;;14.23;5.82;;;16.10;42.70;;;;;;5070496;28;20067;-78
2021/04/23 10:00:30;;;;;;;12.10;6.63;;;14.70;44.90;;;;;;5062021;28;20335;-78
2021/04/23 10:02:59;;;;;;;10.97;5.57;;;14.10;46.00;;;;;;5052973;28;20044;-78
2021/04/23 10:05:36;;;;;;;9.48;6.00;;;13.80;46.00;;;;;;5051887;28;20398;-78
2021/04/23 10:08:08;;;;;;;10.32;6.03;;;14.50;47.10;;;;;;5053425;28;20056;-79
2021/04/23 10:10:36;;;;;;;7.70;5.38;;;15.20;45.60;;;;;;5068269;28;20041;-78
2021/04/23 10:13:09;;;;;;;12.52;5.82;;;15.70;45.10;;;;;;5052634;28;20044;-77
2021/04/23 10:15:41;;;;;;;10.70;5.90;;;14.80;45.40;;;;;;5052378;28;20025;-78
2021/04/23 10:18:13;;;;;;;10.68;5.85;;;13.90;46.40;;;;;;5053362;28;20033;-79
2021/04/23 10:20:45;;;;;;;12.10;5.80;;;13.40;47.60;;;;;;5063436;28;20037;-78
2021/04/23 10:23:23;;;;;;;14.02;6.10;;;13.40;47.70;;;;;;5054771;28;20039;-78
2021/04/23 10:25:53;;;;;;;9.88;5.63;;;13.40;47.60;;;;;;5064578;28;20043;-78
2021/04/23 10:28:21;;;;;;;10.17;6.27;;;13.90;47.30;;;;;;5052591;28;20048;-77
2021/04/23 10:30:51;;;;;;;12.38;6.18;;;14.10;45.80;;;;;;5053432;28;20287;-78
2021/04/23 10:33:20;;;;;;;9.98;5.57;;;13.80;46.60;;;;;;5053013;28;20422;-77
2021/04/23 10:35:49;;;;;;;8.95;5.28;;;13.80;43.90;;;;;;5051761;28;20433;-78
2021/04/23 10:38:21;;;;;;;10.35;5.45;;;13.80;44.30;;;;;;5056036;28;20044;-78
2021/04/23 10:40:56;;;;;;;8.73;4.82;;;13.80;44.60;;;;;;5074713;28;20051;-78
2021/04/23 10:43:22;;;;;;;12.13;5.40;;;13.80;43.90;;;;;;5057428;28;20048;-77
2021/04/23 10:46:10;;;;;;;10.88;5.18;;;13.70;44.30;;;;;;5055724;28;20408;-79
2021/04/23 10:48:41;;;;;;;10.55;6.53;;;13.80;44.70;;;;;;5073938;28;20493;-79
2021/04/23 10:51:22;;;;;;;9.18;5.72;;;13.80;44.80;;;;;;5073211;28;20401;-79
2021/04/23 10:53:51;;;;;;;11.27;5.40;;;13.80;45.40;;;;;;5061824;28;20048;-79
2021/04/23 10:56:34;;;;;;;10.23;5.00;;;14.10;45.20;;;;;;5053211;28;20036;-79
2021/04/23 10:59:03;;;;;;;11.13;6.22;;;14.50;44.90;;;;;;5070354;28;20044;-79
2021/04/23 11:01:35;;;;;;;11.15;5.50;;;14.70;44.10;;;;;;5052370;28;20414;-78
2021/04/23 11:04:04;;;;;;;11.02;5.18;;;14.20;44.60;;;;;;5053003;28;20040;-80
2021/04/23 11:06:37;;;;;;;8.52;4.68;;;14.70;42.80;;;;;;5064071;28;20065;-81
2021/04/23 11:09:07;;;;;;;9.20;5.25;;;14.50;43.20;;;;;;5066288;28;20037;-79
2021/04/23 11:11:37;;;;;;;15.68;4.97;;;14.60;42.70;;;;;;5055700;28;20052;-79
2021/04/23 11:14:29;;;;;;;8.95;4.80;;;14.20;42.90;;;;;;5054791;28;20051;-80
2021/04/23 11:17:18;;;;;;;10.18;4.07;;;14.10;42.80;;;;;;5054528;28;20033;-79
2021/04/23 11:19:51;;;;;;;8.65;4.88;;;14.40;42.80;;;;;;5054455;28;20029;-79
2021/04/23 11:22:23;;;;;;;11.90;4.28;;;14.00;43.20;;;;;;5055656;28;20041;-79
2021/04/23 11:25:18;;;;;;;9.85;4.60;;;14.40;43.40;;;;;;5054015;28;20466;-77
2021/04/23 11:28:04;;;;;;;7.65;5.30;;;15.00;42.30;;;;;;5054208;28;20044;-80
2021/04/23 11:30:57;;;;;;;8.40;5.18;;;15.00;43.00;;;;;;5055200;28;20044;-83
2021/04/23 11:33:53;;;;;;;12.80;5.78;;;15.30;43.60;;;;;;5058140;28;20041;-83
2021/04/23 11:36:29;;;;;;;11.32;5.93;;;14.90;43.10;;;;;;5061177;28;20048;-80
2021/04/23 11:39:07;;;;;;;11.48;5.18;;;15.00;43.20;;;;;;5054520;28;20044;-85
2021/04/23 11:41:34;;;;;;;12.70;6.03;;;15.20;42.80;;;;;;5062754;28;20025;-84
2021/04/23 11:44:01;;;;;;;12.23;4.93;;;15.00;43.60;;;;;;5072766;28;20033;-84
2021/04/23 11:46:53;;;;;;;7.85;5.55;;;15.30;43.50;;;;;;5057937;28;20032;-86
2021/04/23 11:49:20;;;;;;;8.77;5.45;;;15.30;43.40;;;;;;5071421;28;20469;-82
2021/04/23 11:51:52;;;;;;;9.57;5.88;;;15.40;43.20;;;;;;5077597;28;20048;-84
2021/04/23 11:54:42;;;;;;;13.10;5.47;;;15.20;42.90;;;;;;5065119;28;20045;-83
2021/04/23 11:57:10;;;;;;;;;;;15.10;44.40;;;;;;5058481;28;20033;-83
2021/04/23 11:59:54;;;;;;;15.20;6.35;;;15.30;44.10;;;;;;5054961;28;19908;-83
2021/04/23 12:02:41;;;;;;;13.60;5.95;;;15.40;43.20;;;;;;5056060;28;20044;-80
2021/04/23 12:05:24;;;;;;;11.60;5.82;;;15.50;43.40;;;;;;5056130;28;20041;-84
2021/04/23 12:07:53;;;;;;;9.77;5.68;;;15.20;42.90;;;;;;5055482;28;20043;-84
2021/04/23 12:10:22;;;;;;;15.60;5.50;;;15.00;42.90;;;;;;5055979;28;20080;-85
2021/04/23 12:12:48;;;;;;;11.10;5.30;;;15.50;43.20;;;;;;5059649;28;20036;-84
2021/04/23 12:15:19;;;;;;;16.75;6.25;;;15.70;42.30;;;;;;5073724;28;20028;-85
2021/04/23 12:17:46;;;;;;;12.25;5.18;;;15.50;42.60;;;;;;5072380;28;20037;-84
2021/04/23 12:20:18;;;;;;;9.20;5.65;;;15.70;41.90;;;;;;5058554;28;20033;-83
2021/04/23 12:22:45;;;;;;;13.68;5.72;;;15.50;41.90;;;;;;5069371;28;20462;-84
2021/04/23 12:25:27;;;;;;;12.32;4.97;;;15.10;43.20;;;;;;5070296;28;20033;-84
2021/04/23 12:27:54;;;;;;;10.90;5.75;;;15.10;42.90;;;;;;5072767;28;20025;-78
2021/04/23 12:30:30;;;;;;;8.27;4.75;;;15.20;42.10;;;;;;5074979;28;20033;-78
2021/04/23 12:32:57;;;;;;;9.40;5.18;;;15.20;42.80;;;;;;5054387;28;20064;-79
2021/04/23 12:35:52;;;;;;;12.75;6.50;;;15.50;42.90;;;;;;5054844;28;20454;-78
2021/04/23 12:38:37;;;;;;;9.25;5.90;;;16.00;43.00;;;;;;5041932;28;20048;-79
2021/04/23 12:41:23;;;;;;;7.38;4.65;;;15.70;41.90;;;;;;5055244;28;20028;-78
2021/04/23 12:43:52;;;;;;;14.07;5.55;;;15.80;42.80;;;;;;5064454;28;20461;-78
2021/04/23 12:46:21;;;;;;;14.00;6.35;;;16.30;42.40;;;;;;5063777;28;20370;-77
2021/04/23 12:49:06;;;;;;;13.20;5.72;;;16.20;41.00;;;;;;5055822;28;20041;-77
2021/04/23 12:51:34;;;;;;;8.60;4.45;;;15.70;41.10;;;;;;5053886;28;20474;-78
2021/04/23 12:54:02;;;;;;;9.73;5.18;;;15.90;40.70;;;;;;5064725;28;20056;-78
2021/04/23 12:56:30;;;;;;;15.02;6.13;;;15.70;40.30;;;;;;5068208;28;20346;-77